Карточка аэропорта UACC

Внимание!
Информация на этой странице в стадии наполнения.
Если вы не увидели какой-то информации, или заметили неточность - пожалуйста сообщите нам!
Спасибо!
Команда XR-STAFF
Название аэропортаНур-Султан
Название аэропорта (англ.)Nur-Sultan
Превышение1165 ft. (355.1 m.)
Координаты51°1.3319999999999', 71°28.014'
Высота перехода10000
Эшелон переходаby ATC
Коды ответчика0601-0627, 7201-7217
Зона ОрВДНур-Султан РПИ (UACN)
Данные METARUACC 171730Z 36003MPS 320V020 9999 FEW046CB 17/08 Q1009 NOSIG RMK QFE725/0967
Проноз погоды (TAF)UACC 171446Z 1715/1812 23003MPS 9999 SCT040CB TX28/1809Z TN11/1723Z BECMG 1717/1719 04002MPS BECMG 1805/1806 32006MPS SCT030CB TEMPO 1806/1812 VRB18MPS 3100 -TSRA SQ BKN030CB
NOTAMshow/hide NOTAM
AWOS   TABLE

Информация о ВПП

ВПП Длина ВПП (м.) Покрытие Курс ВПП Частота ILS
043500Асфальтобетон35109.5
223500Асфальтобетон215111.7

Диспетчерские позиции

Позывной Наименование органа УВД Частота
UACC_TWRНур-Султан Вышка118.7
UACC_GNDНур-Султан Руление119.6
UACC_R_APPНур-Султан Круг120.7
UACC_APPНур-Султан Подход124.6



Спутниковое изображение